createdAt,value
2022-10-09T00:01:07.005Z,4.83
2022-10-09T00:03:36.013Z,4.73
2022-10-09T00:06:04.809Z,4.33
2022-10-09T00:08:35.744Z,4.33
2022-10-09T00:11:06.304Z,4.60
2022-10-09T00:13:34.694Z,4.57
2022-10-09T00:16:05.077Z,4.43
2022-10-09T00:18:33.096Z,4.83
2022-10-09T00:21:01.165Z,4.57
2022-10-09T00:23:29.713Z,4.63
2022-10-09T00:26:01.378Z,4.63
2022-10-09T00:28:35.343Z,4.80
2022-10-09T00:31:06.356Z,5.10
2022-10-09T00:33:34.834Z,4.23
2022-10-09T00:36:04.762Z,4.30
2022-10-09T00:38:32.809Z,3.97
2022-10-09T00:41:02.405Z,5.00
2022-10-09T00:43:42.588Z,4.37
2022-10-09T00:46:23.910Z,4.77
2022-10-09T00:48:58.745Z,4.23
2022-10-09T00:51:27.352Z,4.23
2022-10-09T00:53:55.629Z,4.07
2022-10-09T00:56:26.254Z,4.53
2022-10-09T00:58:57.317Z,4.53
2022-10-09T01:01:25.472Z,4.20
2022-10-09T01:03:53.522Z,3.90
2022-10-09T01:06:29.385Z,4.33
2022-10-09T01:09:03.817Z,4.20
2022-10-09T01:11:42.386Z,3.60
2022-10-09T01:14:20.112Z,4.10
2022-10-09T01:16:57.400Z,4.33
2022-10-09T01:19:40.948Z,4.07
2022-10-09T01:22:19.149Z,4.63
2022-10-09T01:24:52.551Z,4.20
2022-10-09T01:27:25.238Z,3.80
2022-10-09T01:29:56.893Z,4.10
2022-10-09T01:32:28.921Z,3.90
2022-10-09T01:34:57.722Z,4.13
2022-10-09T01:37:26.373Z,3.90
2022-10-09T01:39:55.057Z,3.77
2022-10-09T01:42:27.323Z,4.40
2022-10-09T01:44:55.342Z,3.73
2022-10-09T01:47:23.727Z,3.93
2022-10-09T01:49:55.838Z,3.70
2022-10-09T01:52:32.354Z,3.50
2022-10-09T01:55:13.382Z,4.03
2022-10-09T01:57:48.247Z,3.90
2022-10-09T02:00:16.863Z,4.03
2022-10-09T02:02:46.216Z,3.20
2022-10-09T02:05:19.084Z,4.00
2022-10-09T02:07:47.730Z,3.77
2022-10-09T02:10:18.165Z,3.87
2022-10-09T02:12:53.569Z,3.60
2022-10-09T02:15:22.536Z,3.97
2022-10-09T02:17:55.191Z,3.37
2022-10-09T02:20:28.756Z,3.40
2022-10-09T02:22:57.875Z,3.63
2022-10-09T02:25:26.219Z,3.70
2022-10-09T02:27:55.872Z,3.80
2022-10-09T02:30:26.405Z,3.33
2022-10-09T02:32:54.703Z,3.40
2022-10-09T02:35:23.230Z,3.87
2022-10-09T02:37:51.228Z,3.63
2022-10-09T02:40:19.178Z,4.40
2022-10-09T02:42:47.569Z,3.50
2022-10-09T02:45:17.282Z,3.07
2022-10-09T02:47:45.375Z,3.20
2022-10-09T02:50:13.375Z,3.33
2022-10-09T02:52:41.434Z,3.43
2022-10-09T02:55:09.989Z,3.30
2022-10-09T02:57:38.057Z,3.20
2022-10-09T03:00:07.015Z,3.73
2022-10-09T03:02:36.607Z,3.63
2022-10-09T03:05:04.996Z,3.10
2022-10-09T03:07:33.196Z,3.40
2022-10-09T03:10:01.488Z,4.80
2022-10-09T03:12:29.546Z,4.00
2022-10-09T03:14:57.550Z,4.87
2022-10-09T03:17:25.592Z,3.63
2022-10-09T03:19:54.979Z,5.67
2022-10-09T03:22:23.108Z,4.23
2022-10-09T03:24:51.090Z,5.17
2022-10-09T03:27:19.126Z,4.30
2022-10-09T03:29:47.328Z,4.37
2022-10-09T03:32:15.674Z,3.47
2022-10-09T03:34:43.904Z,3.53
2022-10-09T03:37:13.336Z,3.40
2022-10-09T03:39:41.418Z,3.47
2022-10-09T03:42:09.592Z,3.53
2022-10-09T03:44:37.655Z,3.00
2022-10-09T03:47:06.077Z,3.57
2022-10-09T03:49:34.176Z,3.50
2022-10-09T03:52:02.303Z,2.83
2022-10-09T03:54:31.659Z,3.10
2022-10-09T03:56:59.731Z,3.10
2022-10-09T03:59:27.802Z,3.60
2022-10-09T04:01:56.010Z,3.33
2022-10-09T04:04:24.005Z,3.60
2022-10-09T04:06:51.975Z,4.03
2022-10-09T04:09:20.017Z,3.87
2022-10-09T04:11:49.405Z,3.40
2022-10-09T04:14:17.422Z,3.17
2022-10-09T04:16:46.123Z,3.03
2022-10-09T04:19:14.165Z,2.93
2022-10-09T04:21:43.341Z,3.10
2022-10-09T04:24:11.395Z,2.73
2022-10-09T04:26:39.462Z,3.40
2022-10-09T04:29:08.846Z,2.83
2022-10-09T04:31:37.237Z,3.20
2022-10-09T04:34:05.397Z,3.50
2022-10-09T04:36:33.544Z,3.40
2022-10-09T04:39:01.639Z,3.60
2022-10-09T04:41:31.033Z,3.63
2022-10-09T04:44:01.588Z,3.07
2022-10-09T04:46:30.953Z,3.43
2022-10-09T04:48:59.086Z,2.90
2022-10-09T04:51:27.118Z,3.10
2022-10-09T04:54:00.424Z,3.70
2022-10-09T04:56:29.016Z,3.00
2022-10-09T04:58:57.082Z,3.27
2022-10-09T05:01:28.099Z,3.20
2022-10-09T05:03:57.787Z,2.77
2022-10-09T05:06:26.433Z,2.97
2022-10-09T05:08:55.641Z,2.83
2022-10-09T05:11:25.961Z,2.60
2022-10-09T05:13:55.825Z,3.17
2022-10-09T05:16:26.514Z,3.20
2022-10-09T05:18:58.705Z,3.03
2022-10-09T05:21:27.035Z,3.43
2022-10-09T05:23:55.622Z,3.10
2022-10-09T05:26:25.339Z,3.47
2022-10-09T05:28:53.457Z,2.83
2022-10-09T05:31:23.122Z,2.93
2022-10-09T05:33:51.297Z,2.60
2022-10-09T05:36:21.021Z,3.20
2022-10-09T05:38:49.482Z,3.80
2022-10-09T05:41:19.431Z,3.30
2022-10-09T05:43:48.985Z,3.07
2022-10-09T05:46:19.484Z,3.07
2022-10-09T05:48:52.595Z,2.70
2022-10-09T05:51:24.229Z,3.00
2022-10-09T05:53:52.702Z,3.07
2022-10-09T05:56:22.202Z,2.70
2022-10-09T05:58:52.605Z,2.70
2022-10-09T06:01:21.357Z,2.70
2022-10-09T06:03:51.499Z,2.93
2022-10-09T06:06:22.119Z,3.13
2022-10-09T06:08:51.088Z,3.03
2022-10-09T06:11:20.633Z,3.13
2022-10-09T06:13:49.061Z,3.00
2022-10-09T06:16:19.323Z,3.00
2022-10-09T06:18:49.578Z,3.17
2022-10-09T06:21:18.163Z,2.77
2022-10-09T06:23:50.451Z,2.50
2022-10-09T06:26:20.059Z,3.17
2022-10-09T06:28:49.063Z,3.03
2022-10-09T06:31:19.176Z,2.80
2022-10-09T06:33:48.778Z,3.08
2022-10-09T06:36:18.342Z,2.78
2022-10-09T06:38:48.347Z,2.70
2022-10-09T06:41:18.625Z,2.72
2022-10-09T06:43:50.775Z,2.53
2022-10-09T06:46:20.564Z,2.45
2022-10-09T06:48:48.990Z,2.80
2022-10-09T06:51:19.818Z,2.63
2022-10-09T06:53:50.696Z,2.60
2022-10-09T06:56:20.525Z,2.60
2022-10-09T06:58:49.197Z,2.47
2022-10-09T07:01:19.191Z,2.42
2022-10-09T07:03:53.339Z,3.00
2022-10-09T07:06:22.846Z,3.20
2022-10-09T07:08:55.451Z,2.92
2022-10-09T07:11:24.912Z,3.15
2022-10-09T07:13:55.756Z,2.60
2022-10-09T07:16:26.367Z,3.05
2022-10-09T07:18:55.384Z,2.78
2022-10-09T07:21:24.187Z,3.67
2022-10-09T07:23:54.062Z,2.92
2022-10-09T07:26:24.307Z,3.00
2022-10-09T07:28:52.853Z,3.20
2022-10-09T07:31:21.066Z,2.90
2022-10-09T07:33:49.643Z,3.00
2022-10-09T07:36:18.594Z,2.55
2022-10-09T07:38:51.111Z,3.20
2022-10-09T07:41:21.428Z,2.85
2022-10-09T07:43:49.938Z,2.33
2022-10-09T07:46:20.246Z,2.63
2022-10-09T07:48:48.638Z,2.90
2022-10-09T07:51:18.497Z,2.38
2022-10-09T07:53:47.427Z,2.90
2022-10-09T07:56:16.322Z,2.45
2022-10-09T07:58:49.599Z,2.30
2022-10-09T08:01:20.272Z,2.70
2022-10-09T08:03:49.515Z,2.20
2022-10-09T08:06:18.377Z,1.70
2022-10-09T08:08:46.660Z,2.08
2022-10-09T08:11:17.165Z,2.10
2022-10-09T08:13:47.769Z,2.50
2022-10-09T08:16:16.522Z,2.15
2022-10-09T08:18:44.605Z,2.00
2022-10-09T08:21:14.176Z,2.00
2022-10-09T08:23:42.445Z,2.25
2022-10-09T08:26:15.723Z,2.13
2022-10-09T08:28:44.333Z,2.13
2022-10-09T08:31:15.021Z,2.13
2022-10-09T08:33:43.507Z,2.30
2022-10-09T08:36:14.399Z,2.10
2022-10-09T08:38:47.847Z,2.13
2022-10-09T08:41:28.189Z,2.35
2022-10-09T08:44:02.673Z,2.55
2022-10-09T08:46:37.560Z,2.28
2022-10-09T08:49:06.301Z,2.53
2022-10-09T08:51:39.243Z,2.30
2022-10-09T08:54:20.230Z,2.33
2022-10-09T08:56:50.757Z,2.50
2022-10-09T08:59:18.776Z,2.55
2022-10-09T09:01:55.181Z,1.95
2022-10-09T09:04:35.173Z,2.10
2022-10-09T09:07:13.979Z,2.20
2022-10-09T09:09:51.619Z,1.92
2022-10-09T09:12:28.282Z,2.20
2022-10-09T09:15:10.686Z,2.17
2022-10-09T09:17:47.567Z,2.17
2022-10-09T09:20:22.236Z,2.13
2022-10-09T09:22:51.258Z,2.30
2022-10-09T09:25:23.119Z,2.05
2022-10-09T09:27:54.534Z,2.10
2022-10-09T09:30:25.535Z,1.95
2022-10-09T09:33:13.462Z,2.00
2022-10-09T09:35:47.765Z,2.20
2022-10-09T09:38:16.060Z,2.15
2022-10-09T09:40:47.206Z,2.33
2022-10-09T09:43:19.091Z,2.40
2022-10-09T09:45:47.896Z,2.50
2022-10-09T09:48:23.826Z,2.08
2022-10-09T09:51:10.081Z,2.45
2022-10-09T09:53:44.596Z,2.38
2022-10-09T09:56:12.804Z,2.20
2022-10-09T09:58:46.394Z,2.10
2022-10-09T10:01:23.732Z,2.65
2022-10-09T10:03:55.634Z,2.13
2022-10-09T10:06:25.363Z,2.30
2022-10-09T10:09:04.951Z,2.15
2022-10-09T10:11:35.633Z,2.30
2022-10-09T10:14:07.994Z,2.47
2022-10-09T10:16:39.223Z,1.95
2022-10-09T10:19:21.479Z,2.13
2022-10-09T10:21:55.762Z,1.92
2022-10-09T10:24:28.190Z,2.40
2022-10-09T10:27:00.973Z,2.45
2022-10-09T10:29:34.427Z,1.95
2022-10-09T10:32:11.477Z,2.58
2022-10-09T10:34:46.074Z,2.45
2022-10-09T10:37:28.994Z,2.65
2022-10-09T10:40:02.568Z,2.78
2022-10-09T10:42:37.377Z,3.05
2022-10-09T10:45:14.297Z,3.03
2022-10-09T10:47:48.377Z,2.55
2022-10-09T10:50:20.438Z,2.45
2022-10-09T10:53:01.663Z,2.50
2022-10-09T10:55:43.557Z,2.20
2022-10-09T10:58:26.155Z,2.70
2022-10-09T11:01:15.657Z,2.55
2022-10-09T11:04:11.029Z,2.35
2022-10-09T11:06:45.822Z,2.85
2022-10-09T11:09:23.198Z,2.25
2022-10-09T11:12:00.671Z,2.63
2022-10-09T11:14:40.086Z,2.25
2022-10-09T11:17:18.149Z,2.40
2022-10-09T11:19:58.455Z,2.38
2022-10-09T11:22:43.359Z,2.30
2022-10-09T11:25:23.471Z,2.25
2022-10-09T11:27:55.727Z,2.65
2022-10-09T11:30:25.197Z,2.00
2022-10-09T11:32:58.748Z,2.30
2022-10-09T11:35:30.570Z,2.25
2022-10-09T11:38:03.697Z,2.35
2022-10-09T11:40:35.090Z,1.95
2022-10-09T11:43:12.457Z,2.30
2022-10-09T11:45:48.608Z,1.88
2022-10-09T11:48:22.747Z,2.10
2022-10-09T11:50:59.782Z,2.13
2022-10-09T11:53:34.414Z,2.00
2022-10-09T11:56:03.834Z,2.10
2022-10-09T11:58:32.006Z,1.75
2022-10-09T12:01:14.715Z,1.83
2022-10-09T12:03:43.308Z,2.13
2022-10-09T12:06:13.735Z,1.80
2022-10-09T12:08:54.315Z,2.00
2022-10-09T12:11:23.653Z,1.70
2022-10-09T12:13:53.869Z,1.90
2022-10-09T12:16:40.811Z,1.60
2022-10-09T12:19:17.717Z,2.10
2022-10-09T12:21:53.220Z,1.63
2022-10-09T12:24:25.269Z,1.80
2022-10-09T12:26:56.101Z,2.00
2022-10-09T12:29:30.215Z,2.15
2022-10-09T12:32:03.635Z,1.80
2022-10-09T12:34:37.139Z,1.60
2022-10-09T12:37:16.808Z,2.10
2022-10-09T12:39:47.142Z,1.70
2022-10-09T12:42:19.989Z,1.60
2022-10-09T12:44:49.943Z,2.30
2022-10-09T12:47:22.905Z,2.45
2022-10-09T12:49:59.357Z,1.77
2022-10-09T12:52:28.051Z,1.83
2022-10-09T12:54:57.484Z,1.98
2022-10-09T12:57:27.746Z,1.80
2022-10-09T12:59:57.168Z,1.40
2022-10-09T13:02:25.361Z,1.63
2022-10-09T13:05:00.287Z,1.60
2022-10-09T13:07:29.988Z,1.63
2022-10-09T13:10:02.986Z,1.90
2022-10-09T13:12:32.712Z,1.90
2022-10-09T13:15:02.690Z,1.63
2022-10-09T13:17:35.953Z,1.65
2022-10-09T13:20:24.071Z,1.70
2022-10-09T13:22:56.343Z,1.23
2022-10-09T13:25:27.209Z,1.75
2022-10-09T13:27:55.421Z,1.80
2022-10-09T13:30:24.081Z,1.73
2022-10-09T13:32:52.117Z,1.77
2022-10-09T13:35:20.312Z,1.52
2022-10-09T13:37:48.718Z,1.65
2022-10-09T13:40:20.455Z,1.50
2022-10-09T13:42:53.398Z,1.58
2022-10-09T13:45:21.535Z,1.85
2022-10-09T13:47:49.768Z,1.70
2022-10-09T13:50:19.696Z,1.90
2022-10-09T13:52:47.893Z,1.52
2022-10-09T13:55:17.193Z,1.83
2022-10-09T13:57:45.239Z,1.73
2022-10-09T14:00:15.509Z,1.70
2022-10-09T14:02:43.593Z,1.63
2022-10-09T14:05:11.824Z,1.70
2022-10-09T14:07:39.889Z,1.75
2022-10-09T14:10:08.631Z,1.90
2022-10-09T14:12:36.678Z,1.88
2022-10-09T14:15:05.050Z,1.40
2022-10-09T14:17:34.426Z,1.80
2022-10-09T14:20:02.468Z,1.85
2022-10-09T14:22:30.646Z,1.70
2022-10-09T14:24:58.633Z,1.65
2022-10-09T14:27:26.878Z,1.63
2022-10-09T14:29:56.669Z,1.60
2022-10-09T14:32:25.600Z,1.67
2022-10-09T14:34:54.952Z,1.67
2022-10-09T14:37:40.432Z,1.50
2022-10-09T14:40:10.737Z,1.48
2022-10-09T14:42:39.174Z,1.63
2022-10-09T14:45:09.040Z,1.60
2022-10-09T14:47:37.168Z,1.50
2022-10-09T14:50:07.684Z,2.17
2022-10-09T14:52:35.852Z,1.88
2022-10-09T14:55:03.893Z,1.52
2022-10-09T14:57:35.345Z,1.70
2022-10-09T15:00:05.021Z,1.75
2022-10-09T15:02:33.244Z,1.80
2022-10-09T15:05:01.296Z,1.92
2022-10-09T15:07:31.880Z,1.70
2022-10-09T15:09:59.929Z,1.55
2022-10-09T15:12:28.138Z,1.40
2022-10-09T15:14:56.157Z,1.58
2022-10-09T15:17:24.261Z,1.58
2022-10-09T15:19:53.919Z,1.52
2022-10-09T15:22:21.954Z,1.70
2022-10-09T15:24:51.429Z,1.55
2022-10-09T15:27:19.472Z,1.73
2022-10-09T15:29:47.496Z,1.20
2022-10-09T15:32:15.659Z,1.70
2022-10-09T15:34:43.694Z,1.35
2022-10-09T15:37:11.785Z,1.38
2022-10-09T15:39:39.812Z,1.40
2022-10-09T15:42:09.234Z,1.40
2022-10-09T15:44:37.353Z,1.33
2022-10-09T15:47:05.522Z,1.60
2022-10-09T15:49:33.493Z,1.45
2022-10-09T15:52:01.558Z,2.05
2022-10-09T15:54:30.068Z,1.60
2022-10-09T15:56:58.158Z,1.42
2022-10-09T15:59:29.967Z,1.27
2022-10-09T16:01:58.077Z,1.38
2022-10-09T16:04:26.926Z,2.15
2022-10-09T16:06:55.049Z,1.17
2022-10-09T16:09:23.036Z,1.73
2022-10-09T16:11:51.066Z,1.77
2022-10-09T16:14:19.041Z,1.50
2022-10-09T16:16:49.861Z,2.92
2022-10-09T16:19:18.028Z,3.35
2022-10-09T16:21:46.041Z,3.78
2022-10-09T16:24:14.044Z,2.35
2022-10-09T16:26:42.234Z,2.13
2022-10-09T16:29:10.459Z,1.95
2022-10-09T16:31:38.581Z,2.47
2022-10-09T16:34:08.435Z,4.90
2022-10-09T16:36:36.687Z,6.20
2022-10-09T16:39:04.868Z,5.60
2022-10-09T16:41:33.049Z,3.47
2022-10-09T16:44:02.805Z,2.53
2022-10-09T16:49:03.762Z,2.38
2022-10-09T16:51:35.953Z,2.55
2022-10-09T16:54:06.176Z,2.65
2022-10-09T16:56:36.368Z,2.20
2022-10-09T16:59:06.892Z,2.22
2022-10-09T17:01:37.751Z,2.05
2022-10-09T17:04:06.364Z,2.38
2022-10-09T17:06:35.733Z,2.38
2022-10-09T17:09:04.265Z,4.70
2022-10-09T17:11:32.430Z,4.95
2022-10-09T17:14:00.501Z,3.08
2022-10-09T17:16:30.622Z,1.83
2022-10-09T17:18:59.055Z,2.65
2022-10-09T17:21:31.018Z,2.30
2022-10-09T17:24:05.017Z,1.73
2022-10-09T17:26:33.434Z,2.10
2022-10-09T17:29:02.207Z,1.80
2022-10-09T17:31:30.924Z,2.35
2022-10-09T17:34:00.284Z,2.22
2022-10-09T17:36:29.767Z,2.03
2022-10-09T17:38:58.109Z,2.42
2022-10-09T17:41:29.135Z,2.58
2022-10-09T17:43:57.705Z,2.78
2022-10-09T17:46:26.881Z,2.70
2022-10-09T17:48:56.792Z,3.17
2022-10-09T17:51:27.829Z,3.25
2022-10-09T17:56:33.844Z,3.17
2022-10-09T17:59:02.961Z,4.22
2022-10-09T18:01:31.606Z,3.70
2022-10-09T18:03:59.968Z,3.83
2022-10-09T18:06:31.067Z,4.75
2022-10-09T18:08:59.065Z,3.58
2022-10-09T18:11:27.785Z,3.50
2022-10-09T18:13:57.537Z,3.17
2022-10-09T18:16:35.280Z,4.93
2022-10-09T18:19:06.182Z,3.83
2022-10-09T18:21:35.351Z,4.88
2022-10-09T18:24:03.432Z,3.60
2022-10-09T18:26:31.566Z,3.42
2022-10-09T18:29:01.382Z,3.00
2022-10-09T18:31:30.021Z,3.60
2022-10-09T18:33:58.821Z,3.92
2022-10-09T18:36:31.397Z,3.88
2022-10-09T18:39:02.252Z,3.97
2022-10-09T18:41:30.312Z,4.88
2022-10-09T18:44:01.156Z,4.13
2022-10-09T18:46:34.991Z,4.10
2022-10-09T18:49:03.293Z,4.63
2022-10-09T18:51:32.702Z,4.43
2022-10-09T18:54:03.706Z,5.70
2022-10-09T18:56:33.727Z,5.38
2022-10-09T18:59:06.708Z,5.50
2022-10-09T19:01:34.822Z,6.38
2022-10-09T19:04:02.924Z,5.57
2022-10-09T19:06:31.043Z,5.88
2022-10-09T19:09:00.824Z,5.60
2022-10-09T19:11:30.052Z,5.30
2022-10-09T19:14:00.105Z,5.25
2022-10-09T19:16:31.320Z,5.47
2022-10-09T19:18:59.636Z,4.35
2022-10-09T19:21:27.710Z,3.80
2022-10-09T19:23:55.955Z,4.47
2022-10-09T19:26:24.527Z,5.38
2022-10-09T19:28:52.680Z,4.85
2022-10-09T19:31:20.869Z,4.72
2022-10-09T19:33:50.299Z,4.60
2022-10-09T19:36:18.710Z,4.32
2022-10-09T19:38:47.479Z,4.70
2022-10-09T19:41:16.831Z,4.72
2022-10-09T19:43:44.879Z,5.30
2022-10-09T19:46:14.819Z,8.65
2022-10-09T19:48:42.795Z,6.55
2022-10-09T19:51:14.146Z,6.32
2022-10-09T19:53:42.685Z,5.10
2022-10-09T19:56:12.837Z,5.25
2022-10-09T19:58:41.836Z,5.35
2022-10-09T20:01:11.082Z,5.40
2022-10-09T20:03:39.551Z,5.22
2022-10-09T20:06:09.461Z,4.20
2022-10-09T20:08:40.656Z,4.25
2022-10-09T20:11:11.318Z,3.63
2022-10-09T20:13:41.579Z,3.90
2022-10-09T20:16:11.871Z,4.22
2022-10-09T20:18:42.400Z,4.20
2022-10-09T20:21:11.884Z,3.85
2022-10-09T20:23:41.494Z,4.13
2022-10-09T20:26:12.697Z,4.15
2022-10-09T20:28:41.045Z,3.50
2022-10-09T20:31:14.561Z,3.50
2022-10-09T20:33:43.832Z,4.05
2022-10-09T20:36:20.196Z,3.50
2022-10-09T20:38:49.965Z,3.88
2022-10-09T20:41:18.200Z,4.20
2022-10-09T20:43:50.302Z,4.03
2022-10-09T20:46:18.573Z,4.03
2022-10-09T20:48:46.694Z,4.35
2022-10-09T20:51:14.951Z,3.92
2022-10-09T20:53:43.013Z,3.75
2022-10-09T20:56:14.867Z,3.35
2022-10-09T20:58:43.050Z,3.90
2022-10-09T21:01:14.079Z,3.78
2022-10-09T21:03:42.501Z,3.33
2022-10-09T21:06:13.248Z,3.25
2022-10-09T21:08:41.480Z,3.85
2022-10-09T21:11:11.236Z,3.95
2022-10-09T21:13:41.687Z,3.42
2022-10-09T21:16:12.372Z,3.55
2022-10-09T21:18:40.909Z,3.80
2022-10-09T21:21:10.942Z,3.60
2022-10-09T21:23:39.315Z,3.67
2022-10-09T21:26:13.504Z,3.78
2022-10-09T21:28:43.060Z,3.80
2022-10-09T21:31:12.125Z,3.92
2022-10-09T21:33:40.254Z,3.63
2022-10-09T21:36:11.963Z,3.60
2022-10-09T21:38:40.479Z,3.30
2022-10-09T21:41:08.525Z,3.50
2022-10-09T21:43:36.516Z,3.97
2022-10-09T21:46:06.180Z,3.60
2022-10-09T21:48:34.160Z,3.67
2022-10-09T21:51:02.235Z,3.47
2022-10-09T21:53:30.564Z,3.33
2022-10-09T21:55:58.766Z,3.17
2022-10-09T21:58:26.746Z,3.35
2022-10-09T22:00:58.602Z,3.40
2022-10-09T22:03:29.261Z,3.15
2022-10-09T22:05:57.676Z,3.65
2022-10-09T22:08:25.940Z,3.45
2022-10-09T22:10:54.007Z,3.70
2022-10-09T22:13:22.007Z,3.30
2022-10-09T22:15:51.454Z,3.40
2022-10-09T22:18:20.032Z,3.28
2022-10-09T22:20:50.482Z,3.47
2022-10-09T22:23:20.366Z,3.35
2022-10-09T22:25:57.721Z,3.38
2022-10-09T22:28:25.910Z,3.65
2022-10-09T22:31:03.059Z,3.28
2022-10-09T22:33:31.315Z,3.25
2022-10-09T22:36:12.189Z,3.30
2022-10-09T22:38:41.154Z,3.38
2022-10-09T22:41:11.536Z,3.10
2022-10-09T22:43:40.856Z,3.38
2022-10-09T22:46:11.372Z,3.22
2022-10-09T22:48:39.958Z,2.67
2022-10-09T22:51:11.915Z,3.42
2022-10-09T22:53:41.932Z,3.15
2022-10-09T22:56:13.524Z,2.85
2022-10-09T22:58:41.571Z,3.28
2022-10-09T23:01:11.987Z,3.22
2022-10-09T23:03:40.007Z,3.03
2022-10-09T23:06:15.698Z,3.22
2022-10-09T23:08:46.100Z,2.83
2022-10-09T23:11:15.399Z,2.60
2022-10-09T23:13:43.504Z,3.35
2022-10-09T23:16:13.768Z,3.03
2022-10-09T23:18:42.401Z,2.92
2022-10-09T23:21:14.701Z,3.10
2022-10-09T23:23:44.025Z,2.90
2022-10-09T23:26:14.467Z,3.17
2022-10-09T23:28:43.190Z,3.30
2022-10-09T23:31:13.811Z,3.40
2022-10-09T23:33:43.197Z,3.25
2022-10-09T23:36:15.633Z,3.20
2022-10-09T23:38:44.071Z,3.00
2022-10-09T23:41:14.190Z,3.40
2022-10-09T23:43:43.951Z,3.35
2022-10-09T23:46:14.231Z,3.20
2022-10-09T23:48:42.890Z,3.13
2022-10-09T23:51:11.345Z,2.95
2022-10-09T23:53:41.232Z,3.15
2022-10-09T23:56:21.889Z,3.38
2022-10-09T23:58:50.341Z,3.92
